Scf Navigator — WDD6460 — position and weather

sailwx.info

Track history (hours):
 
Tides and Currents Weather Stations Pressure Air Temp Water Temp Dewpoint Dewpoint Depression Visibility Wind Speed Wind Dir Waves Ship Positions

Scf Navigator

Owner: SCF WAXLER MARINE LLC, St Rose, LA. More information available from US FCC via Universal Licensing System and Coast Guard Vessel Documentation Center.

Last reported at 2018-Feb-21 06:47 UTC. Time now 2018-Feb-24 10:32 UTC.
Position N 31°59' W 091°11'.

Length 34 m; draft 2.7 m.

Type: Ship (hazmat cat A). MMSI: 367173230.

Date/timePositionNaut miles runAvg speedWind from/ knotsBaromVisibWave heightAir tempDewpointWater temp
2018-Feb-21 06:47N 31°59' W 091°11'4 8.8
2018-Feb-21 06:21N 31°59' W 091°06'4 8.9
2018-Feb-21 05:53N 32°03' W 091°03'4 8.1
2018-Feb-21 05:22N 32°06' W 091°06'2 5.5
2018-Feb-21 05:00N 32°08' W 091°05'4 7.6
2018-Feb-21 04:30N 32°09' W 091°00'4 8.9
2018-Feb-21 04:00N 32°13' W 090°59'4 9.0
2018-Feb-21 03:30N 32°17' W 090°57'2 3.4
2018-Feb-21 03:00N 32°18' W 090°55'0 0.0
2018-Feb-21 02:30N 32°18' W 090°55'0 0.0
2018-Feb-21 02:00N 32°18' W 090°55'0 0.0
2018-Feb-21 01:30N 32°18' W 090°55'2 4.0
2018-Feb-21 01:00N 32°20' W 090°54'4 8.7
2018-Feb-21 00:30N 32°21' W 090°59'4 8.1
2018-Feb-21 00:00N 32°25' W 090°60'5 9.7
2018-Feb-20 23:30N 32°27' W 091°05'6 9.3
2018-Feb-20 22:49N 32°33' W 091°06'14 0.3
2018-Feb-18 21:31N 32°47' W 091°09'2 4.4
2018-Feb-18 21:10N 32°46' W 091°09'6 2.2
2018-Feb-18 18:39N 32°40' W 091°07'1 5.2
2018-Feb-18 18:30N 32°40' W 091°08'3 4.8
2018-Feb-18 17:56N 32°37' W 091°09'1 1.6
2018-Feb-18 17:30N 32°37' W 091°09'1 1.5
2018-Feb-18 17:00N 32°36' W 091°09'2 4.0
2018-Feb-18 16:30N 32°35' W 091°07'2 4.4
2018-Feb-18 16:00N 32°33' W 091°06'2 3.8
2018-Feb-18 15:30N 32°31' W 091°06'2 4.3
2018-Feb-18 15:00N 32°29' W 091°07'2 4.8
2018-Feb-18 14:30N 32°27' W 091°05'2 4.6
2018-Feb-18 14:00N 32°26' W 091°02'2 4.4
2018-Feb-18 13:30N 32°25' W 091°00'2 4.7
2018-Feb-18 13:00N 32°23' W 091°00'2 3.9
2018-Feb-18 12:30N 32°21' W 090°59'1 2.8
2018-Feb-18 12:00N 32°21' W 090°57'0 0.8
2018-Feb-18 11:30N 32°21' W 090°57'1 1.9
2018-Feb-18 11:00N 32°21' W 090°56'2 3.9
2018-Feb-18 10:30N 32°19' W 090°54'2 3.1
2018-Feb-18 10:00N 32°18' W 090°55'0 0.0
2018-Feb-18 09:30N 32°18' W 090°55'0 0.0
2018-Feb-18 09:00N 32°18' W 090°55'0 0.0
2018-Feb-18 08:29N 32°18' W 090°55'0 0.0
2018-Feb-18 08:00N 32°18' W 090°55'0 0.0
2018-Feb-18 07:30N 32°18' W 090°55'0 0.7
2018-Feb-18 07:00N 32°18' W 090°55'2 3.6
2018-Feb-18 06:30N 32°17' W 090°57'2 3.7
2018-Feb-18 06:00N 32°15' W 090°58'2 3.3
2018-Feb-18 05:30N 32°14' W 090°59'2 3.0
2018-Feb-18 05:00N 32°12' W 090°59'2 3.2
2018-Feb-18 04:30N 32°11' W 090°60'2 3.7
2018-Feb-18 04:00N 32°09' W 091°00'2 3.1
2018-Feb-18 03:30N 32°07' W 091°01'2 3.5
2018-Feb-18 03:00N 32°07' W 091°03'2 3.2
2018-Feb-18 02:24N 32°08' W 091°05'1 3.4
2018-Feb-18 02:00N 32°07' W 091°07'2 3.8
2018-Feb-18 01:27N 32°06' W 091°05'3 3.9
2018-Feb-18 00:46N 32°03' W 091°03'1 3.7
2018-Feb-18 00:30N 32°02' W 091°04'  
Track history (hours):
 
Tides and Currents Weather Stations Pressure Air Temp Water Temp Dewpoint Dewpoint Depression Visibility Wind Speed Wind Dir Waves Ship Positions

Scf Navigator

Owner: SCF WAXLER MARINE LLC, St Rose, LA. More information available from US FCC via Universal Licensing System and Coast Guard Vessel Documentation Center.

Last reported at 2018-Feb-21 06:47 UTC. Time now 2018-Feb-24 10:32 UTC.
Position N 31°59' W 091°11'.

Length 34 m; draft 2.7 m.

Type: Ship (hazmat cat A). MMSI: 367173230.

Date/timePositionNaut miles runAvg speedWind from/ knotsBaromVisibWave heightAir tempDewpointWater temp
2018-Feb-21 06:47N 31°59' W 091°11'4 8.8
2018-Feb-21 06:21N 31°59' W 091°06'4 8.9
2018-Feb-21 05:53N 32°03' W 091°03'4 8.1
2018-Feb-21 05:22N 32°06' W 091°06'2 5.5
2018-Feb-21 05:00N 32°08' W 091°05'4 7.6
2018-Feb-21 04:30N 32°09' W 091°00'4 8.9
2018-Feb-21 04:00N 32°13' W 090°59'4 9.0
2018-Feb-21 03:30N 32°17' W 090°57'2 3.4
2018-Feb-21 03:00N 32°18' W 090°55'0 0.0
2018-Feb-21 02:30N 32°18' W 090°55'0 0.0
2018-Feb-21 02:00N 32°18' W 090°55'0 0.0
2018-Feb-21 01:30N 32°18' W 090°55'2 4.0
2018-Feb-21 01:00N 32°20' W 090°54'4 8.7
2018-Feb-21 00:30N 32°21' W 090°59'4 8.1
2018-Feb-21 00:00N 32°25' W 090°60'5 9.7
2018-Feb-20 23:30N 32°27' W 091°05'6 9.3
2018-Feb-20 22:49N 32°33' W 091°06'14 0.3
2018-Feb-18 21:31N 32°47' W 091°09'2 4.4
2018-Feb-18 21:10N 32°46' W 091°09'6 2.2
2018-Feb-18 18:39N 32°40' W 091°07'1 5.2
2018-Feb-18 18:30N 32°40' W 091°08'3 4.8
2018-Feb-18 17:56N 32°37' W 091°09'1 1.6
2018-Feb-18 17:30N 32°37' W 091°09'1 1.5
2018-Feb-18 17:00N 32°36' W 091°09'2 4.0
2018-Feb-18 16:30N 32°35' W 091°07'2 4.4
2018-Feb-18 16:00N 32°33' W 091°06'2 3.8
2018-Feb-18 15:30N 32°31' W 091°06'2 4.3
2018-Feb-18 15:00N 32°29' W 091°07'2 4.8
2018-Feb-18 14:30N 32°27' W 091°05'2 4.6
2018-Feb-18 14:00N 32°26' W 091°02'2 4.4
2018-Feb-18 13:30N 32°25' W 091°00'2 4.7
2018-Feb-18 13:00N 32°23' W 091°00'2 3.9
2018-Feb-18 12:30N 32°21' W 090°59'1 2.8
2018-Feb-18 12:00N 32°21' W 090°57'0 0.8
2018-Feb-18 11:30N 32°21' W 090°57'1 1.9
2018-Feb-18 11:00N 32°21' W 090°56'2 3.9
2018-Feb-18 10:30N 32°19' W 090°54'2 3.1
2018-Feb-18 10:00N 32°18' W 090°55'0 0.0
2018-Feb-18 09:30N 32°18' W 090°55'0 0.0
2018-Feb-18 09:00N 32°18' W 090°55'0 0.0
2018-Feb-18 08:29N 32°18' W 090°55'0 0.0
2018-Feb-18 08:00N 32°18' W 090°55'0 0.0
2018-Feb-18 07:30N 32°18' W 090°55'0 0.7
2018-Feb-18 07:00N 32°18' W 090°55'2 3.6
2018-Feb-18 06:30N 32°17' W 090°57'2 3.7
2018-Feb-18 06:00N 32°15' W 090°58'2 3.3
2018-Feb-18 05:30N 32°14' W 090°59'2 3.0
2018-Feb-18 05:00N 32°12' W 090°59'2 3.2
2018-Feb-18 04:30N 32°11' W 090°60'2 3.7
2018-Feb-18 04:00N 32°09' W 091°00'2 3.1
2018-Feb-18 03:30N 32°07' W 091°01'2 3.5
2018-Feb-18 03:00N 32°07' W 091°03'2 3.2
2018-Feb-18 02:24N 32°08' W 091°05'1 3.4
2018-Feb-18 02:00N 32°07' W 091°07'2 3.8
2018-Feb-18 01:27N 32°06' W 091°05'3 3.9
2018-Feb-18 00:46N 32°03' W 091°03'1 3.7
2018-Feb-18 00:30N 32°02' W 091°04'  

Dump ship's entire track history